createdAt,value
2018-11-05T00:00:38.020Z,42.07
2018-11-05T00:03:08.370Z,41.30
2018-11-05T00:05:38.480Z,42.55
2018-11-05T00:08:08.524Z,40.95
2018-11-05T00:10:38.738Z,41.83
2018-11-05T00:13:08.701Z,41.10
2018-11-05T00:15:38.743Z,41.37
2018-11-05T00:18:08.798Z,40.63
2018-11-05T00:20:38.645Z,40.37
2018-11-05T00:23:08.613Z,41.83
2018-11-05T00:25:38.656Z,40.80
2018-11-05T00:28:08.579Z,39.77
2018-11-05T00:30:38.668Z,40.70
2018-11-05T00:33:08.495Z,40.07
2018-11-05T00:35:38.562Z,39.97
2018-11-05T00:38:08.627Z,41.70
2018-11-05T00:40:38.496Z,39.93
2018-11-05T00:43:08.563Z,40.30
2018-11-05T00:45:38.573Z,41.80
2018-11-05T00:48:08.609Z,41.47
2018-11-05T00:50:38.545Z,42.97
2018-11-05T00:53:08.557Z,42.17
2018-11-05T00:55:38.800Z,41.03
2018-11-05T00:58:08.581Z,41.57
2018-11-05T01:00:38.608Z,39.87
2018-11-05T01:03:08.539Z,40.67
2018-11-05T01:05:38.530Z,38.83
2018-11-05T01:08:08.577Z,39.53
2018-11-05T01:10:38.673Z,38.03
2018-11-05T01:13:08.542Z,41.83
2018-11-05T01:15:38.556Z,40.57
2018-11-05T01:18:08.593Z,40.03
2018-11-05T01:20:38.570Z,38.50
2018-11-05T01:23:08.576Z,40.60
2018-11-05T01:25:38.674Z,42.37
2018-11-05T01:28:08.569Z,41.27
2018-11-05T01:30:38.625Z,40.17
2018-11-05T01:33:08.567Z,38.60
2018-11-05T01:35:38.579Z,40.23
2018-11-05T01:38:08.833Z,40.23
2018-11-05T01:40:38.604Z,39.67
2018-11-05T01:43:08.517Z,38.73
2018-11-05T01:45:38.617Z,40.10
2018-11-05T01:48:08.457Z,39.47
2018-11-05T01:50:38.524Z,39.60
2018-11-05T01:53:08.498Z,39.73
2018-11-05T01:55:38.670Z,38.30
2018-11-05T01:58:09.405Z,38.60
2018-11-05T02:00:39.452Z,37.90
2018-11-05T02:03:09.568Z,40.10
2018-11-05T02:05:39.598Z,39.07
2018-11-05T02:08:09.497Z,39.13
2018-11-05T02:10:39.750Z,38.87
2018-11-05T02:13:09.740Z,38.13
2018-11-05T02:15:39.722Z,40.83
2018-11-05T02:18:09.564Z,39.07
2018-11-05T02:20:39.495Z,38.33
2018-11-05T02:23:09.552Z,37.53
2018-11-05T02:25:39.655Z,38.70
2018-11-05T02:28:09.764Z,38.17
2018-11-05T02:30:39.608Z,39.87
2018-11-05T02:33:09.414Z,38.27
2018-11-05T02:35:39.526Z,36.73
2018-11-05T02:38:09.535Z,39.43
2018-11-05T02:40:39.599Z,39.17
2018-11-05T02:43:09.578Z,39.77
2018-11-05T02:45:39.513Z,41.60
2018-11-05T02:48:09.562Z,39.10
2018-11-05T02:50:39.427Z,38.63
2018-11-05T02:53:09.653Z,39.17
2018-11-05T02:55:39.602Z,40.57
2018-11-05T02:58:09.429Z,39.77
2018-11-05T03:00:39.620Z,42.20
2018-11-05T03:03:09.454Z,37.63
2018-11-05T03:05:39.552Z,39.13
2018-11-05T03:08:09.490Z,38.13
2018-11-05T03:10:39.519Z,38.60
2018-11-05T03:13:09.665Z,38.43
2018-11-05T03:15:39.834Z,38.70
2018-11-05T03:18:09.813Z,41.07
2018-11-05T03:20:39.569Z,39.88
2018-11-05T03:23:09.389Z,39.03
2018-11-05T03:25:39.981Z,36.38
2018-11-05T03:28:09.713Z,39.13
2018-11-05T03:30:39.625Z,39.80
2018-11-05T03:33:09.549Z,37.00
2018-11-05T03:35:39.771Z,41.08
2018-11-05T03:38:09.706Z,41.00
2018-11-05T03:40:39.622Z,38.07
2018-11-05T03:43:09.877Z,40.55
2018-11-05T03:45:39.707Z,40.23
2018-11-05T03:48:09.909Z,40.23
2018-11-05T03:50:39.936Z,40.13
2018-11-05T03:53:10.090Z,39.86
2018-11-05T03:55:40.094Z,40.80
2018-11-05T03:58:09.988Z,39.78
2018-11-05T04:00:40.521Z,38.10
2018-11-05T04:03:11.161Z,39.03
2018-11-05T04:05:42.109Z,39.67
2018-11-05T04:08:12.942Z,39.60
2018-11-05T04:10:44.468Z,37.26
2018-11-05T04:13:14.971Z,37.67
2018-11-05T04:15:46.555Z,36.96
2018-11-05T04:18:17.403Z,38.50
2018-11-05T04:20:48.425Z,37.85
2018-11-05T04:23:19.014Z,37.25
2018-11-05T04:25:50.359Z,38.74
2018-11-05T04:28:21.245Z,36.10
2018-11-05T04:30:52.082Z,38.20
2018-11-05T04:33:23.310Z,40.06
2018-11-05T04:35:54.005Z,38.92
2018-11-05T04:38:25.184Z,36.90
2018-11-05T04:40:56.403Z,36.36
2018-11-05T04:43:26.909Z,34.92
2018-11-05T04:45:59.197Z,36.98
2018-11-05T04:48:29.624Z,34.73
2018-11-05T04:51:00.913Z,37.88
2018-11-05T04:53:31.330Z,36.60
2018-11-05T04:56:02.186Z,37.88
2018-11-05T04:58:32.984Z,37.20
2018-11-05T05:01:04.771Z,36.64
2018-11-05T05:03:35.251Z,38.90
2018-11-05T05:06:06.442Z,38.20
2018-11-05T05:08:37.022Z,38.65
2018-11-05T05:11:08.569Z,38.66
2018-11-05T05:13:39.154Z,39.03
2018-11-05T05:16:11.361Z,39.56
2018-11-05T05:18:42.703Z,41.53
2018-11-05T05:21:12.650Z,40.27
2018-11-05T05:23:43.129Z,38.65
2018-11-05T05:26:14.473Z,41.06
2018-11-05T05:28:44.991Z,38.50
2018-11-05T05:31:16.444Z,40.74
2018-11-05T05:33:46.949Z,39.58
2018-11-05T05:36:18.422Z,40.84
2018-11-05T05:38:49.037Z,39.63
2018-11-05T05:41:20.665Z,38.28
2018-11-05T05:43:51.284Z,39.50
2018-11-05T05:46:22.202Z,39.60
2018-11-05T05:48:53.007Z,39.40
2018-11-05T05:51:24.433Z,39.66
2018-11-05T05:53:55.066Z,37.28
2018-11-05T05:56:26.731Z,45.20
2018-11-05T05:58:57.256Z,41.75
2018-11-05T06:01:28.228Z,42.05
2018-11-05T06:03:59.070Z,39.63
2018-11-05T06:06:30.830Z,41.32
2018-11-05T06:09:01.279Z,41.80
2018-11-05T06:11:32.387Z,41.25
2018-11-05T06:14:03.085Z,42.08
2018-11-05T06:16:34.799Z,37.70
2018-11-05T06:19:05.796Z,36.88
2018-11-05T06:21:36.695Z,37.83
2018-11-05T06:24:07.354Z,37.10
2018-11-05T06:26:38.342Z,38.88
2018-11-05T06:29:09.110Z,36.40
2018-11-05T06:31:40.187Z,37.78
2018-11-05T06:34:11.120Z,38.53
2018-11-05T06:36:42.523Z,36.20
2018-11-05T06:39:14.400Z,37.65
2018-11-05T06:41:44.438Z,35.83
2018-11-05T06:44:15.245Z,37.45
2018-11-05T06:46:46.371Z,37.15
2018-11-05T06:49:17.017Z,37.60
2018-11-05T06:51:48.543Z,38.66
2018-11-05T06:54:19.378Z,36.98
2018-11-05T06:56:50.221Z,36.65
2018-11-05T06:59:20.990Z,39.65
2018-11-05T07:01:52.470Z,40.30
2018-11-05T07:04:23.051Z,40.73
2018-11-05T07:06:54.461Z,37.02
2018-11-05T07:09:25.024Z,38.88
2018-11-05T07:11:56.597Z,38.44
2018-11-05T07:14:27.246Z,38.28
2018-11-05T07:16:58.314Z,39.10
2018-11-05T07:19:29.094Z,38.98
2018-11-05T07:22:00.289Z,37.75
2018-11-05T07:24:31.031Z,35.52
2018-11-05T07:27:02.437Z,37.18
2018-11-05T07:29:32.981Z,34.70
2018-11-05T07:32:04.629Z,35.10
2018-11-05T07:34:35.356Z,34.48
2018-11-05T07:37:06.748Z,35.17
2018-11-05T07:39:37.230Z,29.52
2018-11-05T07:42:08.097Z,32.73
2018-11-05T07:44:39.371Z,31.92
2018-11-05T07:47:10.304Z,30.25
2018-11-05T07:49:41.097Z,29.50
2018-11-05T07:52:12.469Z,30.10
2018-11-05T07:54:43.038Z,30.08
2018-11-05T07:57:15.537Z,28.78
2018-11-05T07:59:45.330Z,29.33
2018-11-05T08:02:16.246Z,29.05
2018-11-05T08:04:46.991Z,29.02
2018-11-05T08:07:18.433Z,28.24
2018-11-05T08:09:49.004Z,27.15
2018-11-05T08:12:20.443Z,29.30
2018-11-05T08:14:51.165Z,27.22
2018-11-05T08:17:22.128Z,25.88
2018-11-05T08:19:53.483Z,24.90
2018-11-05T08:22:24.139Z,27.27
2018-11-05T08:24:55.106Z,26.40
2018-11-05T08:27:26.039Z,26.97
2018-11-05T08:29:57.371Z,26.66
2018-11-05T08:32:28.293Z,25.65
2018-11-05T08:34:58.995Z,26.35
2018-11-05T08:37:30.516Z,25.32
2018-11-05T08:40:01.287Z,26.90
2018-11-05T08:42:32.241Z,24.55
2018-11-05T08:45:03.090Z,23.83
2018-11-05T08:47:34.538Z,22.88
2018-11-05T08:50:05.284Z,23.12
2018-11-05T08:52:36.183Z,23.02
2018-11-05T08:55:08.589Z,21.90
2018-11-05T08:57:38.629Z,22.57
2018-11-05T09:00:20.435Z,22.40
2018-11-05T09:02:50.987Z,20.20
2018-11-05T09:05:20.911Z,21.57
2018-11-05T09:07:51.783Z,20.53
2018-11-05T09:10:21.868Z,17.77
2018-11-05T09:12:52.142Z,18.00
2018-11-05T09:15:23.062Z,19.03
2018-11-05T09:17:53.260Z,17.40
2018-11-05T09:20:23.193Z,17.60
2018-11-05T09:22:53.849Z,17.50
2018-11-05T09:25:23.909Z,16.50
2018-11-05T09:27:53.842Z,16.87
2018-11-05T09:30:24.946Z,16.85
2018-11-05T09:32:54.767Z,15.25
2018-11-05T09:35:25.165Z,16.30
2018-11-05T09:37:55.086Z,14.70
2018-11-05T09:40:25.878Z,15.23
2018-11-05T09:42:56.585Z,13.24
2018-11-05T09:45:28.690Z,13.98
2018-11-05T09:47:58.623Z,15.20
2018-11-05T09:50:29.285Z,14.45
2018-11-05T09:53:00.252Z,14.60
2018-11-05T09:55:31.034Z,12.40
2018-11-05T09:58:02.198Z,14.13
2018-11-05T10:00:33.024Z,14.07
2018-11-05T10:03:09.622Z,14.10
2018-11-05T10:05:39.956Z,13.22
2018-11-05T10:08:09.931Z,13.73
2018-11-05T10:10:40.793Z,13.75
2018-11-05T10:13:10.591Z,15.15
2018-11-05T10:15:41.110Z,13.53
2018-11-05T10:18:10.968Z,13.03
2018-11-05T10:20:41.713Z,14.04
2018-11-05T10:23:12.301Z,14.70
2018-11-05T10:25:43.157Z,14.07
2018-11-05T10:28:14.341Z,13.58
2018-11-05T10:30:45.282Z,14.23
2018-11-05T10:33:16.079Z,13.80
2018-11-05T10:35:52.415Z,13.76
2018-11-05T10:38:22.642Z,14.40
2018-11-05T10:40:52.662Z,14.80
2018-11-05T10:43:22.621Z,13.90
2018-11-05T10:45:52.924Z,14.97
2018-11-05T10:48:22.896Z,13.70
2018-11-05T10:50:53.399Z,14.80
2018-11-05T10:53:24.620Z,14.43
2018-11-05T10:55:55.157Z,19.27
2018-11-05T10:58:25.333Z,14.55
2018-11-05T11:01:01.264Z,14.78
2018-11-05T11:03:34.546Z,15.60
2018-11-05T11:06:05.976Z,14.13
2018-11-05T11:08:36.058Z,14.83
2018-11-05T11:11:06.253Z,15.07
2018-11-05T11:13:36.155Z,14.08
2018-11-05T11:16:06.098Z,15.43
2018-11-05T11:18:36.132Z,14.10
2018-11-05T11:21:07.026Z,14.87
2018-11-05T11:23:36.782Z,14.40
2018-11-05T11:26:06.869Z,15.37
2018-11-05T11:28:37.425Z,17.86
2018-11-05T11:31:08.433Z,15.63
2018-11-05T11:33:39.074Z,15.15
2018-11-05T11:36:10.315Z,16.30
2018-11-05T11:38:41.278Z,15.70
2018-11-05T11:41:12.025Z,15.55
2018-11-05T11:43:44.523Z,15.84
2018-11-05T11:46:14.486Z,14.27
2018-11-05T11:48:45.227Z,14.55
2018-11-05T11:51:16.023Z,15.25
2018-11-05T11:53:47.364Z,15.14
2018-11-05T11:56:18.272Z,14.10
2018-11-05T11:58:49.082Z,16.95
2018-11-05T12:01:20.114Z,19.90
2018-11-05T12:03:51.456Z,15.86
2018-11-05T12:06:22.021Z,17.90
2018-11-05T12:08:53.397Z,14.48
2018-11-05T12:11:24.046Z,18.37
2018-11-05T12:13:55.685Z,13.98
2018-11-05T12:16:26.550Z,11.48
2018-11-05T12:18:57.170Z,13.60
2018-11-05T12:21:28.094Z,12.10
2018-11-05T12:23:59.108Z,13.22
2018-11-05T12:26:30.098Z,12.30
2018-11-05T12:29:01.144Z,13.90
2018-11-05T12:31:32.223Z,11.45
2018-11-05T12:34:03.168Z,27.60
2018-11-05T12:36:34.145Z,13.13
2018-11-05T12:39:06.354Z,12.90
2018-11-05T12:41:36.478Z,30.57
2018-11-05T12:44:09.292Z,13.88
2018-11-05T12:46:43.690Z,16.42
2018-11-05T12:49:13.603Z,12.00
2018-11-05T12:51:43.442Z,12.43
2018-11-05T12:54:13.314Z,11.37
2018-11-05T12:56:43.227Z,12.45
2018-11-05T12:59:13.013Z,12.77
2018-11-05T13:01:44.670Z,11.78
2018-11-05T13:04:15.215Z,11.97
2018-11-05T13:06:46.307Z,11.75
2018-11-05T13:09:17.007Z,22.93
2018-11-05T13:11:48.439Z,10.70
2018-11-05T13:14:19.089Z,11.43
2018-11-05T13:16:50.646Z,10.50
2018-11-05T13:19:21.133Z,11.05
2018-11-05T13:21:52.290Z,11.20
2018-11-05T13:24:23.010Z,12.50
2018-11-05T13:26:54.422Z,11.72
2018-11-05T13:29:24.948Z,11.85
2018-11-05T13:31:56.496Z,11.50
2018-11-05T13:34:27.103Z,16.65
2018-11-05T13:36:58.986Z,48.86
2018-11-05T13:39:29.003Z,20.67
2018-11-05T13:42:01.137Z,15.30
2018-11-05T13:44:32.546Z,12.30
2018-11-05T13:47:03.379Z,11.97
2018-11-05T13:49:33.692Z,11.84
2018-11-05T13:52:04.382Z,11.45
2018-11-05T13:54:35.305Z,12.85
2018-11-05T13:57:06.729Z,11.83
2018-11-05T13:59:37.253Z,12.13
2018-11-05T14:02:08.232Z,12.58
2018-11-05T14:04:39.065Z,13.58
2018-11-05T14:07:10.338Z,15.05
2018-11-05T14:09:41.445Z,15.13
2018-11-05T14:12:12.156Z,15.05
2018-11-05T14:14:43.393Z,15.14
2018-11-05T14:17:14.126Z,13.83
2018-11-05T14:19:45.401Z,12.42
2018-11-05T14:22:16.128Z,12.07
2018-11-05T14:24:47.104Z,10.50
2018-11-05T14:27:18.067Z,10.08
2018-11-05T14:29:49.667Z,9.95
2018-11-05T14:32:20.305Z,10.58
2018-11-05T14:34:51.048Z,10.28
2018-11-05T14:37:22.571Z,9.44
2018-11-05T14:39:53.360Z,10.18
2018-11-05T14:42:24.365Z,10.10
2018-11-05T14:44:55.032Z,10.35
2018-11-05T14:47:26.525Z,10.24
2018-11-05T14:49:57.140Z,12.20
2018-11-05T14:52:28.182Z,15.75
2018-11-05T14:54:58.132Z,18.47
2018-11-05T14:57:29.654Z,15.75
2018-11-05T15:00:00.365Z,15.63
2018-11-05T15:02:36.061Z,14.23
2018-11-05T15:05:06.549Z,13.47
2018-11-05T15:07:37.087Z,15.23
2018-11-05T15:10:09.073Z,21.15
2018-11-05T15:12:39.042Z,16.13
2018-11-05T15:15:10.395Z,13.80
2018-11-05T15:17:41.599Z,11.48
2018-11-05T15:20:13.931Z,12.00
2018-11-05T15:22:44.178Z,15.03
2018-11-05T15:25:14.924Z,17.40
2018-11-05T15:27:45.089Z,14.90
2018-11-05T15:30:17.893Z,14.85
2018-11-05T15:32:47.817Z,12.97
2018-11-05T15:35:18.018Z,12.33
2018-11-05T15:37:47.962Z,13.30
2018-11-05T15:40:19.280Z,14.00
2018-11-05T15:42:49.479Z,14.73
2018-11-05T15:45:21.181Z,11.70
2018-11-05T15:47:51.284Z,11.30
2018-11-05T15:50:22.158Z,10.65
2018-11-05T15:52:52.254Z,9.30
2018-11-05T15:55:22.461Z,13.80
2018-11-05T15:57:53.048Z,23.85
2018-11-05T16:00:25.360Z,19.46
2018-11-05T16:02:56.738Z,16.10
2018-11-05T16:05:26.787Z,21.90
2018-11-05T16:07:57.244Z,26.70
2018-11-05T16:10:28.140Z,24.15
2018-11-05T16:12:58.966Z,15.32
2018-11-05T16:15:30.356Z,15.98
2018-11-05T16:18:01.624Z,12.37
2018-11-05T16:20:32.177Z,11.22
2018-11-05T16:23:03.082Z,12.23
2018-11-05T16:25:34.413Z,13.74
2018-11-05T16:28:05.076Z,14.20
2018-11-05T16:30:36.710Z,15.02
2018-11-05T16:33:07.630Z,12.40
2018-11-05T16:35:38.415Z,11.53
2018-11-05T16:38:09.038Z,11.08
2018-11-05T16:40:40.518Z,11.54
2018-11-05T16:43:11.328Z,12.30
2018-11-05T16:45:42.294Z,11.70
2018-11-05T16:48:12.956Z,10.72
2018-11-05T16:50:44.457Z,12.00
2018-11-05T16:53:14.965Z,12.30
2018-11-05T16:55:46.409Z,11.78
2018-11-05T16:58:16.981Z,11.33
2018-11-05T17:00:48.482Z,11.14
2018-11-05T17:03:19.093Z,11.55
2018-11-05T17:05:50.189Z,11.65
2018-11-05T17:08:21.226Z,10.78
2018-11-05T17:10:52.120Z,10.40
2018-11-05T17:13:23.396Z,11.00
2018-11-05T17:15:54.207Z,13.25
2018-11-05T17:18:24.982Z,17.10
2018-11-05T17:20:55.560Z,19.77
2018-11-05T17:23:26.256Z,15.30
2018-11-05T17:25:57.145Z,13.48
2018-11-05T17:28:28.274Z,13.36
2018-11-05T17:30:59.050Z,13.18
2018-11-05T17:33:30.331Z,12.78
2018-11-05T17:36:01.077Z,12.60
2018-11-05T17:38:32.256Z,15.90
2018-11-05T17:41:03.081Z,14.55
2018-11-05T17:43:34.268Z,15.00
2018-11-05T17:46:05.123Z,11.95
2018-11-05T17:48:35.954Z,11.83
2018-11-05T17:51:08.321Z,11.56
2018-11-05T17:53:38.040Z,12.77
2018-11-05T17:56:09.417Z,13.94
2018-11-05T17:58:39.905Z,12.10
2018-11-05T18:01:11.425Z,13.02
2018-11-05T18:03:42.031Z,11.80
2018-11-05T18:06:13.092Z,12.90
2018-11-05T18:08:44.351Z,12.46
2018-11-05T18:11:15.225Z,11.70
2018-11-05T18:13:46.054Z,12.10
2018-11-05T18:16:17.501Z,12.80
2018-11-05T18:18:48.212Z,13.80
2018-11-05T18:21:19.367Z,12.33
2018-11-05T18:23:49.977Z,11.65
2018-11-05T18:26:21.757Z,14.88
2018-11-05T18:28:52.185Z,17.80
2018-11-05T18:31:23.126Z,15.88
2018-11-05T18:33:53.973Z,16.45
2018-11-05T18:36:25.397Z,14.66
2018-11-05T18:38:56.275Z,14.63
2018-11-05T18:41:27.105Z,12.73
2018-11-05T18:43:58.338Z,13.28
2018-11-05T18:46:29.416Z,12.75
2018-11-05T18:49:00.033Z,14.45
2018-11-05T18:51:39.430Z,14.32
2018-11-05T18:54:10.250Z,12.10
2018-11-05T18:56:40.818Z,12.50
2018-11-05T18:59:10.705Z,10.77
2018-11-05T19:01:40.778Z,12.07
2018-11-05T19:04:10.784Z,11.90
2018-11-05T19:06:40.910Z,12.33
2018-11-05T19:09:10.272Z,12.93
2018-11-05T19:11:40.007Z,11.28
2018-11-05T19:14:10.227Z,12.47
2018-11-05T19:16:41.349Z,12.88
2018-11-05T19:19:12.158Z,11.83
2018-11-05T19:21:43.061Z,11.18
2018-11-05T19:24:14.441Z,11.90
2018-11-05T19:26:45.063Z,11.50
2018-11-05T19:29:16.300Z,14.02
2018-11-05T19:31:46.993Z,18.12
2018-11-05T19:34:18.300Z,14.12
2018-11-05T19:36:49.393Z,11.65
2018-11-05T19:39:20.044Z,12.23
2018-11-05T19:41:51.501Z,12.16
2018-11-05T19:44:22.110Z,12.10
2018-11-05T19:46:52.013Z,12.40
2018-11-05T19:49:23.379Z,11.04
2018-11-05T19:51:53.948Z,11.75
2018-11-05T19:54:25.549Z,11.26
2018-11-05T19:56:56.041Z,12.65
2018-11-05T19:59:27.354Z,11.74
2018-11-05T20:01:57.929Z,12.13
2018-11-05T20:04:29.416Z,12.12
2018-11-05T20:06:59.966Z,13.18
2018-11-05T20:09:31.407Z,11.74
2018-11-05T20:12:02.120Z,12.37
2018-11-05T20:14:33.039Z,11.00
2018-11-05T20:17:04.349Z,11.96
2018-11-05T20:19:35.107Z,12.53
2018-11-05T20:22:05.945Z,13.00
2018-11-05T20:24:37.579Z,12.68
2018-11-05T20:27:08.142Z,12.50
2018-11-05T20:29:39.353Z,11.18
2018-11-05T20:32:10.416Z,11.80
2018-11-05T20:34:41.402Z,11.75
2018-11-05T20:37:12.178Z,10.60
2018-11-05T20:39:43.612Z,11.75
2018-11-05T20:42:14.482Z,12.07
2018-11-05T20:44:45.156Z,11.90
2018-11-05T20:47:16.357Z,12.70
2018-11-05T20:49:47.400Z,13.13
2018-11-05T20:52:18.709Z,12.90
2018-11-05T20:54:49.241Z,11.63
2018-11-05T20:57:20.055Z,12.05
2018-11-05T20:59:51.406Z,12.62
2018-11-05T21:02:22.109Z,12.03
2018-11-05T21:04:53.197Z,14.28
2018-11-05T21:07:24.111Z,20.40
2018-11-05T21:09:55.113Z,17.27
2018-11-05T21:12:26.405Z,16.46
2018-11-05T21:14:57.287Z,25.20
2018-11-05T21:17:28.194Z,17.92
2018-11-05T21:20:00.398Z,12.93
2018-11-05T21:22:30.400Z,12.00
2018-11-05T21:25:01.098Z,11.73
2018-11-05T21:27:32.496Z,11.98
2018-11-05T21:30:03.169Z,13.00
2018-11-05T21:32:37.686Z,12.52
2018-11-05T21:35:09.323Z,12.93
2018-11-05T21:37:40.026Z,12.20
2018-11-05T21:40:11.475Z,12.15
2018-11-05T21:42:42.152Z,11.08
2018-11-05T21:45:13.333Z,12.13
2018-11-05T21:47:44.668Z,11.33
2018-11-05T21:50:16.484Z,15.67
2018-11-05T21:52:47.449Z,36.03
2018-11-05T21:55:17.397Z,35.75
2018-11-05T21:57:49.148Z,25.37
2018-11-05T22:00:21.322Z,21.67
2018-11-05T22:02:57.071Z,20.32
2018-11-05T22:05:27.156Z,21.77
2018-11-05T22:07:57.468Z,18.53
2018-11-05T22:10:27.841Z,19.65
2018-11-05T22:12:58.303Z,19.37
2018-11-05T22:15:35.638Z,16.67
2018-11-05T22:18:06.246Z,17.87
2018-11-05T22:20:36.222Z,18.30
2018-11-05T22:23:06.434Z,14.50
2018-11-05T22:25:36.978Z,15.90
2018-11-05T22:28:07.373Z,14.67
2018-11-05T22:30:37.297Z,15.23
2018-11-05T22:33:09.953Z,12.53
2018-11-05T22:35:40.120Z,12.47
2018-11-05T22:38:10.122Z,12.97
2018-11-05T22:40:40.081Z,13.68
2018-11-05T22:43:09.944Z,13.13
2018-11-05T22:45:39.776Z,12.13
2018-11-05T22:48:09.599Z,11.60
2018-11-05T22:50:39.448Z,11.30
2018-11-05T22:53:09.269Z,11.60
2018-11-05T22:55:39.552Z,12.28
2018-11-05T22:58:09.413Z,13.37
2018-11-05T23:00:44.776Z,13.97
2018-11-05T23:03:19.811Z,13.48
2018-11-05T23:05:50.117Z,14.78
2018-11-05T23:08:19.857Z,14.97
2018-11-05T23:10:49.750Z,16.33
2018-11-05T23:13:19.848Z,15.13
2018-11-05T23:15:50.085Z,15.18
2018-11-05T23:18:19.808Z,16.17
2018-11-05T23:20:49.794Z,16.13
2018-11-05T23:23:19.550Z,16.55
2018-11-05T23:25:49.665Z,15.80
2018-11-05T23:28:19.439Z,15.50
2018-11-05T23:30:49.909Z,15.85
2018-11-05T23:33:21.524Z,16.10
2018-11-05T23:42:49.143Z,15.90
2018-11-05T23:45:18.937Z,16.23
2018-11-05T23:47:49.556Z,15.70
2018-11-05T23:50:19.584Z,15.53
2018-11-05T23:52:49.480Z,15.60
2018-11-05T23:55:19.531Z,15.45
2018-11-05T23:57:49.616Z,14.83
